sensor_id;sensor_type;location;lat;lon;timestamp;temperature;humidity
21318;DHT22;10818;50.830;6.524;2023-06-14T00:03:59;17.90;99.90
21318;DHT22;10818;50.830;6.524;2023-06-14T00:09:00;17.80;99.90
21318;DHT22;10818;50.830;6.524;2023-06-14T00:14:01;17.70;99.90
21318;DHT22;10818;50.830;6.524;2023-06-14T00:19:03;17.60;99.90
21318;DHT22;10818;50.830;6.524;2023-06-14T00:24:04;17.50;99.90
21318;DHT22;10818;50.830;6.524;2023-06-14T00:29:05;17.40;99.90
21318;DHT22;10818;50.830;6.524;2023-06-14T00:34:05;17.30;99.90
21318;DHT22;10818;50.830;6.524;2023-06-14T00:39:06;17.30;99.90
21318;DHT22;10818;50.830;6.524;2023-06-14T00:44:06;17.20;99.90
21318;DHT22;10818;50.830;6.524;2023-06-14T00:49:07;17.00;99.90
21318;DHT22;10818;50.830;6.524;2023-06-14T00:54:07;17.10;99.90
21318;DHT22;10818;50.830;6.524;2023-06-14T00:59:08;17.00;99.90
21318;DHT22;10818;50.830;6.524;2023-06-14T01:04:09;16.90;99.90
21318;DHT22;10818;50.830;6.524;2023-06-14T01:09:15;16.80;99.90
21318;DHT22;10818;50.830;6.524;2023-06-14T01:14:18;16.70;99.90
21318;DHT22;10818;50.830;6.524;2023-06-14T01:19:20;16.60;99.90
21318;DHT22;10818;50.830;6.524;2023-06-14T01:24:22;16.60;99.90
21318;DHT22;10818;50.830;6.524;2023-06-14T01:29:25;16.50;99.90
21318;DHT22;10818;50.830;6.524;2023-06-14T01:34:27;16.50;99.90
21318;DHT22;10818;50.830;6.524;2023-06-14T01:39:28;16.40;99.90
21318;DHT22;10818;50.830;6.524;2023-06-14T01:44:29;16.30;99.90
21318;DHT22;10818;50.830;6.524;2023-06-14T01:49:29;16.30;99.90
21318;DHT22;10818;50.830;6.524;2023-06-14T01:54:33;16.20;99.90
21318;DHT22;10818;50.830;6.524;2023-06-14T01:59:33;16.20;99.90
21318;DHT22;10818;50.830;6.524;2023-06-14T02:04:35;16.10;99.90
21318;DHT22;10818;50.830;6.524;2023-06-14T02:09:35;16.00;99.90
21318;DHT22;10818;50.830;6.524;2023-06-14T02:14:36;16.00;99.90
21318;DHT22;10818;50.830;6.524;2023-06-14T02:19:36;16.00;99.90
21318;DHT22;10818;50.830;6.524;2023-06-14T02:24:37;15.90;99.90
21318;DHT22;10818;50.830;6.524;2023-06-14T02:29:37;15.90;99.90
21318;DHT22;10818;50.830;6.524;2023-06-14T02:34:38;15.90;99.90
21318;DHT22;10818;50.830;6.524;2023-06-14T02:39:41;15.80;99.90
21318;DHT22;10818;50.830;6.524;2023-06-14T02:44:42;15.70;99.90
21318;DHT22;10818;50.830;6.524;2023-06-14T02:49:43;15.60;99.90
21318;DHT22;10818;50.830;6.524;2023-06-14T02:54:44;15.60;99.90
21318;DHT22;10818;50.830;6.524;2023-06-14T02:59:44;15.50;99.90
21318;DHT22;10818;50.830;6.524;2023-06-14T03:04:45;15.40;99.90
21318;DHT22;10818;50.830;6.524;2023-06-14T03:09:48;15.30;99.90
21318;DHT22;10818;50.830;6.524;2023-06-14T03:14:49;15.30;99.90
21318;DHT22;10818;50.830;6.524;2023-06-14T03:19:51;15.30;99.90
21318;DHT22;10818;50.830;6.524;2023-06-14T03:24:52;15.20;99.90
21318;DHT22;10818;50.830;6.524;2023-06-14T03:29:54;15.20;99.90
21318;DHT22;10818;50.830;6.524;2023-06-14T03:34:54;15.20;99.90
21318;DHT22;10818;50.830;6.524;2023-06-14T03:39:55;15.20;99.90
21318;DHT22;10818;50.830;6.524;2023-06-14T03:44:56;15.10;99.90
21318;DHT22;10818;50.830;6.524;2023-06-14T03:49:56;15.10;99.90
21318;DHT22;10818;50.830;6.524;2023-06-14T03:54:57;15.10;99.90
21318;DHT22;10818;50.830;6.524;2023-06-14T03:59:57;15.10;99.90
21318;DHT22;10818;50.830;6.524;2023-06-14T04:04:58;15.20;99.90
21318;DHT22;10818;50.830;6.524;2023-06-14T04:09:58;15.30;99.90
21318;DHT22;10818;50.830;6.524;2023-06-14T04:14:58;15.50;99.90
21318;DHT22;10818;50.830;6.524;2023-06-14T04:19:59;15.50;99.90
21318;DHT22;10818;50.830;6.524;2023-06-14T04:25:00;15.70;99.90
21318;DHT22;10818;50.830;6.524;2023-06-14T04:30:00;15.80;99.90
21318;DHT22;10818;50.830;6.524;2023-06-14T04:35:02;15.80;99.90
21318;DHT22;10818;50.830;6.524;2023-06-14T04:40:04;16.10;99.90
21318;DHT22;10818;50.830;6.524;2023-06-14T04:45:07;16.30;99.90
21318;DHT22;10818;50.830;6.524;2023-06-14T04:50:07;16.50;99.90
21318;DHT22;10818;50.830;6.524;2023-06-14T04:55:08;16.60;99.90
21318;DHT22;10818;50.830;6.524;2023-06-14T05:00:09;16.70;99.90
21318;DHT22;10818;50.830;6.524;2023-06-14T05:05:11;16.90;99.90
21318;DHT22;10818;50.830;6.524;2023-06-14T05:10:12;17.10;99.90
21318;DHT22;10818;50.830;6.524;2023-06-14T05:15:12;17.50;99.90
21318;DHT22;10818;50.830;6.524;2023-06-14T05:20:13;17.60;99.90
21318;DHT22;10818;50.830;6.524;2023-06-14T05:25:13;17.80;99.90
21318;DHT22;10818;50.830;6.524;2023-06-14T05:30:15;18.00;99.90
21318;DHT22;10818;50.830;6.524;2023-06-14T05:35:15;18.20;99.90
21318;DHT22;10818;50.830;6.524;2023-06-14T05:40:16;18.20;99.90
21318;DHT22;10818;50.830;6.524;2023-06-14T05:45:17;18.40;99.90
21318;DHT22;10818;50.830;6.524;2023-06-14T05:50:17;18.60;99.90
21318;DHT22;10818;50.830;6.524;2023-06-14T05:55:18;18.70;99.90
21318;DHT22;10818;50.830;6.524;2023-06-14T06:00:18;18.90;99.90
21318;DHT22;10818;50.830;6.524;2023-06-14T06:05:20;19.00;99.90
21318;DHT22;10818;50.830;6.524;2023-06-14T06:10:20;19.40;99.90
21318;DHT22;10818;50.830;6.524;2023-06-14T06:15:21;19.60;99.90
21318;DHT22;10818;50.830;6.524;2023-06-14T06:20:22;20.00;99.90
21318;DHT22;10818;50.830;6.524;2023-06-14T06:25:27;21.20;99.90
21318;DHT22;10818;50.830;6.524;2023-06-14T06:30:28;26.60;94.10
21318;DHT22;10818;50.830;6.524;2023-06-14T06:35:28;31.40;77.30
21318;DHT22;10818;50.830;6.524;2023-06-14T06:40:30;33.20;62.30
21318;DHT22;10818;50.830;6.524;2023-06-14T06:45:31;35.40;55.10
21318;DHT22;10818;50.830;6.524;2023-06-14T06:50:31;36.80;50.70
21318;DHT22;10818;50.830;6.524;2023-06-14T06:55:32;38.70;48.00
21318;DHT22;10818;50.830;6.524;2023-06-14T07:00:32;38.90;41.90
21318;DHT22;10818;50.830;6.524;2023-06-14T07:05:33;40.20;39.20
21318;DHT22;10818;50.830;6.524;2023-06-14T07:10:33;40.50;38.00
21318;DHT22;10818;50.830;6.524;2023-06-14T07:15:34;41.00;36.90
21318;DHT22;10818;50.830;6.524;2023-06-14T07:20:35;41.90;35.40
21318;DHT22;10818;50.830;6.524;2023-06-14T07:25:38;41.70;34.50
21318;DHT22;10818;50.830;6.524;2023-06-14T07:30:38;41.30;34.10
21318;DHT22;10818;50.830;6.524;2023-06-14T07:35:39;41.80;33.40
21318;DHT22;10818;50.830;6.524;2023-06-14T07:40:40;44.40;31.70
21318;DHT22;10818;50.830;6.524;2023-06-14T07:45:40;46.40;30.10
21318;DHT22;10818;50.830;6.524;2023-06-14T07:50:41;47.40;28.30
21318;DHT22;10818;50.830;6.524;2023-06-14T07:55:41;45.30;28.70
21318;DHT22;10818;50.830;6.524;2023-06-14T08:00:43;45.00;29.30
21318;DHT22;10818;50.830;6.524;2023-06-14T08:05:43;44.40;29.30
21318;DHT22;10818;50.830;6.524;2023-06-14T08:10:44;43.90;30.10
21318;DHT22;10818;50.830;6.524;2023-06-14T08:15:44;45.50;28.80
21318;DHT22;10818;50.830;6.524;2023-06-14T08:20:45;44.80;28.50
21318;DHT22;10818;50.830;6.524;2023-06-14T08:25:45;41.20;31.90
21318;DHT22;10818;50.830;6.524;2023-06-14T08:30:46;36.60;35.30
21318;DHT22;10818;50.830;6.524;2023-06-14T08:35:46;32.70;39.30
21318;DHT22;10818;50.830;6.524;2023-06-14T08:40:48;30.50;43.40
21318;DHT22;10818;50.830;6.524;2023-06-14T08:45:51;30.30;43.10
21318;DHT22;10818;50.830;6.524;2023-06-14T08:50:56;28.50;45.30
21318;DHT22;10818;50.830;6.524;2023-06-14T08:56:02;28.20;46.50
21318;DHT22;10818;50.830;6.524;2023-06-14T09:01:04;28.00;46.90
21318;DHT22;10818;50.830;6.524;2023-06-14T09:06:08;28.10;45.80
21318;DHT22;10818;50.830;6.524;2023-06-14T09:11:13;27.80;48.20
21318;DHT22;10818;50.830;6.524;2023-06-14T09:16:14;27.60;47.20
21318;DHT22;10818;50.830;6.524;2023-06-14T09:21:15;27.30;47.90
21318;DHT22;10818;50.830;6.524;2023-06-14T09:26:17;26.80;49.00
21318;DHT22;10818;50.830;6.524;2023-06-14T09:31:18;27.30;48.80
21318;DHT22;10818;50.830;6.524;2023-06-14T09:36:23;27.70;47.40
21318;DHT22;10818;50.830;6.524;2023-06-14T09:46:33;28.00;44.40
21318;DHT22;10818;50.830;6.524;2023-06-14T09:51:34;27.90;44.90
21318;DHT22;10818;50.830;6.524;2023-06-14T09:56:37;26.90;46.50
21318;DHT22;10818;50.830;6.524;2023-06-14T10:01:41;27.50;44.00
21318;DHT22;10818;50.830;6.524;2023-06-14T10:06:43;27.80;43.70
21318;DHT22;10818;50.830;6.524;2023-06-14T10:11:43;27.50;43.80
21318;DHT22;10818;50.830;6.524;2023-06-14T10:16:47;27.40;42.90
21318;DHT22;10818;50.830;6.524;2023-06-14T10:21:57;27.90;42.80
21318;DHT22;10818;50.830;6.524;2023-06-14T10:26:59;27.60;43.20
21318;DHT22;10818;50.830;6.524;2023-06-14T10:32:02;27.40;42.90
21318;DHT22;10818;50.830;6.524;2023-06-14T10:37:08;27.80;44.30
21318;DHT22;10818;50.830;6.524;2023-06-14T10:42:10;27.80;42.90
21318;DHT22;10818;50.830;6.524;2023-06-14T10:47:22;27.80;43.90
21318;DHT22;10818;50.830;6.524;2023-06-14T10:52:24;27.60;44.40
21318;DHT22;10818;50.830;6.524;2023-06-14T10:57:25;27.80;43.70
21318;DHT22;10818;50.830;6.524;2023-06-14T11:07:58;27.30;44.50
21318;DHT22;10818;50.830;6.524;2023-06-14T11:13:03;27.30;45.80
21318;DHT22;10818;50.830;6.524;2023-06-14T11:18:05;27.90;44.40
21318;DHT22;10818;50.830;6.524;2023-06-14T11:23:06;27.90;45.80
21318;DHT22;10818;50.830;6.524;2023-06-14T11:28:06;27.70;45.60
21318;DHT22;10818;50.830;6.524;2023-06-14T11:33:09;27.50;46.80
21318;DHT22;10818;50.830;6.524;2023-06-14T11:38:09;27.60;47.20
21318;DHT22;10818;50.830;6.524;2023-06-14T11:43:10;27.70;46.60
21318;DHT22;10818;50.830;6.524;2023-06-14T11:48:10;27.80;46.80
21318;DHT22;10818;50.830;6.524;2023-06-14T11:53:11;27.80;47.20
21318;DHT22;10818;50.830;6.524;2023-06-14T11:58:12;27.60;48.20
21318;DHT22;10818;50.830;6.524;2023-06-14T12:03:12;27.40;48.20
21318;DHT22;10818;50.830;6.524;2023-06-14T12:08:13;27.90;47.80
21318;DHT22;10818;50.830;6.524;2023-06-14T12:13:17;27.80;48.20
21318;DHT22;10818;50.830;6.524;2023-06-14T12:18:19;28.00;47.70
21318;DHT22;10818;50.830;6.524;2023-06-14T12:23:20;27.70;47.70
21318;DHT22;10818;50.830;6.524;2023-06-14T12:28:22;27.40;47.90
21318;DHT22;10818;50.830;6.524;2023-06-14T12:33:23;27.40;48.80
21318;DHT22;10818;50.830;6.524;2023-06-14T12:38:24;27.80;48.10
21318;DHT22;10818;50.830;6.524;2023-06-14T12:43:24;28.00;48.20
21318;DHT22;10818;50.830;6.524;2023-06-14T12:48:25;27.60;49.30
21318;DHT22;10818;50.830;6.524;2023-06-14T12:53:27;27.40;49.20
21318;DHT22;10818;50.830;6.524;2023-06-14T12:58:27;27.80;50.40
21318;DHT22;10818;50.830;6.524;2023-06-14T13:03:28;27.60;49.50
21318;DHT22;10818;50.830;6.524;2023-06-14T13:08:28;28.20;50.00
21318;DHT22;10818;50.830;6.524;2023-06-14T13:13:29;28.20;49.10
21318;DHT22;10818;50.830;6.524;2023-06-14T13:18:29;28.10;49.80
21318;DHT22;10818;50.830;6.524;2023-06-14T13:23:30;28.20;50.70
21318;DHT22;10818;50.830;6.524;2023-06-14T13:28:30;28.40;50.10
21318;DHT22;10818;50.830;6.524;2023-06-14T13:33:31;29.30;49.20
21318;DHT22;10818;50.830;6.524;2023-06-14T13:38:32;29.60;48.00
21318;DHT22;10818;50.830;6.524;2023-06-14T13:43:32;29.40;46.00
21318;DHT22;10818;50.830;6.524;2023-06-14T13:48:33;29.20;46.60
21318;DHT22;10818;50.830;6.524;2023-06-14T13:53:33;29.50;48.20
21318;DHT22;10818;50.830;6.524;2023-06-14T13:58:34;28.60;47.20
21318;DHT22;10818;50.830;6.524;2023-06-14T14:03:35;28.30;47.20
21318;DHT22;10818;50.830;6.524;2023-06-14T14:08:35;28.50;47.90
21318;DHT22;10818;50.830;6.524;2023-06-14T14:13:36;28.00;48.90
21318;DHT22;10818;50.830;6.524;2023-06-14T14:18:36;28.10;48.10
21318;DHT22;10818;50.830;6.524;2023-06-14T14:23:37;28.10;48.80
21318;DHT22;10818;50.830;6.524;2023-06-14T14:28:38;27.70;49.00
21318;DHT22;10818;50.830;6.524;2023-06-14T14:33:38;27.10;50.40
21318;DHT22;10818;50.830;6.524;2023-06-14T14:38:39;27.00;50.40
21318;DHT22;10818;50.830;6.524;2023-06-14T14:43:40;27.50;49.00
21318;DHT22;10818;50.830;6.524;2023-06-14T14:48:40;27.30;49.60
21318;DHT22;10818;50.830;6.524;2023-06-14T14:53:40;27.40;49.20
21318;DHT22;10818;50.830;6.524;2023-06-14T14:58:41;27.30;48.40
21318;DHT22;10818;50.830;6.524;2023-06-14T15:03:41;27.10;49.00
21318;DHT22;10818;50.830;6.524;2023-06-14T15:08:44;26.90;49.00
21318;DHT22;10818;50.830;6.524;2023-06-14T15:13:45;27.20;49.60
21318;DHT22;10818;50.830;6.524;2023-06-14T15:18:45;27.40;47.00
21318;DHT22;10818;50.830;6.524;2023-06-14T15:23:46;26.90;48.50
21318;DHT22;10818;50.830;6.524;2023-06-14T15:28:46;27.00;48.70
21318;DHT22;10818;50.830;6.524;2023-06-14T15:33:46;27.00;48.60
21318;DHT22;10818;50.830;6.524;2023-06-14T15:38:47;26.80;49.40
21318;DHT22;10818;50.830;6.524;2023-06-14T15:43:47;27.00;49.20
21318;DHT22;10818;50.830;6.524;2023-06-14T15:48:48;26.90;49.30
21318;DHT22;10818;50.830;6.524;2023-06-14T15:53:48;27.00;49.00
21318;DHT22;10818;50.830;6.524;2023-06-14T15:58:49;26.90;49.30
21318;DHT22;10818;50.830;6.524;2023-06-14T16:03:50;27.10;48.30
21318;DHT22;10818;50.830;6.524;2023-06-14T16:08:50;27.10;50.00
21318;DHT22;10818;50.830;6.524;2023-06-14T16:13:52;26.80;49.30
21318;DHT22;10818;50.830;6.524;2023-06-14T16:18:52;27.10;48.60
21318;DHT22;10818;50.830;6.524;2023-06-14T16:23:53;26.90;48.70
21318;DHT22;10818;50.830;6.524;2023-06-14T16:28:54;27.00;49.10
21318;DHT22;10818;50.830;6.524;2023-06-14T16:33:54;26.60;49.80
21318;DHT22;10818;50.830;6.524;2023-06-14T16:38:55;26.50;49.00
21318;DHT22;10818;50.830;6.524;2023-06-14T16:43:55;26.20;50.90
21318;DHT22;10818;50.830;6.524;2023-06-14T16:48:56;26.20;50.50
21318;DHT22;10818;50.830;6.524;2023-06-14T16:53:57;26.30;50.00
21318;DHT22;10818;50.830;6.524;2023-06-14T16:58:57;26.20;51.20
21318;DHT22;10818;50.830;6.524;2023-06-14T17:03:58;25.90;51.50
21318;DHT22;10818;50.830;6.524;2023-06-14T17:08:58;25.80;51.00
21318;DHT22;10818;50.830;6.524;2023-06-14T17:13:59;25.70;51.80
21318;DHT22;10818;50.830;6.524;2023-06-14T17:19:00;25.60;51.30
21318;DHT22;10818;50.830;6.524;2023-06-14T17:24:01;25.60;52.10
21318;DHT22;10818;50.830;6.524;2023-06-14T17:29:02;25.80;51.40
21318;DHT22;10818;50.830;6.524;2023-06-14T17:34:02;25.80;51.30
21318;DHT22;10818;50.830;6.524;2023-06-14T17:39:03;25.80;51.80
21318;DHT22;10818;50.830;6.524;2023-06-14T17:44:03;25.80;52.90
21318;DHT22;10818;50.830;6.524;2023-06-14T17:49:03;25.30;51.90
21318;DHT22;10818;50.830;6.524;2023-06-14T17:54:04;25.30;52.90
21318;DHT22;10818;50.830;6.524;2023-06-14T17:59:04;25.30;53.30
21318;DHT22;10818;50.830;6.524;2023-06-14T18:04:05;25.10;53.50
21318;DHT22;10818;50.830;6.524;2023-06-14T18:09:05;25.00;54.40
21318;DHT22;10818;50.830;6.524;2023-06-14T18:14:06;24.90;53.50
21318;DHT22;10818;50.830;6.524;2023-06-14T18:19:06;24.80;54.30
21318;DHT22;10818;50.830;6.524;2023-06-14T18:24:07;24.60;55.10
21318;DHT22;10818;50.830;6.524;2023-06-14T18:29:07;24.50;55.20
21318;DHT22;10818;50.830;6.524;2023-06-14T18:34:08;24.40;55.70
21318;DHT22;10818;50.830;6.524;2023-06-14T18:39:11;24.40;56.50
21318;DHT22;10818;50.830;6.524;2023-06-14T18:44:11;24.30;56.60
21318;DHT22;10818;50.830;6.524;2023-06-14T18:49:12;24.20;56.80
21318;DHT22;10818;50.830;6.524;2023-06-14T18:54:12;24.20;56.60
21318;DHT22;10818;50.830;6.524;2023-06-14T18:59:13;24.10;57.20
21318;DHT22;10818;50.830;6.524;2023-06-14T19:04:13;23.90;57.30
21318;DHT22;10818;50.830;6.524;2023-06-14T19:09:14;23.60;58.40
21318;DHT22;10818;50.830;6.524;2023-06-14T19:14:15;23.40;58.80
21318;DHT22;10818;50.830;6.524;2023-06-14T19:19:15;23.10;59.40
21318;DHT22;10818;50.830;6.524;2023-06-14T19:24:16;22.90;60.30
21318;DHT22;10818;50.830;6.524;2023-06-14T19:29:16;22.70;60.60
21318;DHT22;10818;50.830;6.524;2023-06-14T19:34:17;22.60;60.20
21318;DHT22;10818;50.830;6.524;2023-06-14T19:39:17;22.40;60.40
21318;DHT22;10818;50.830;6.524;2023-06-14T19:44:17;22.20;61.30
21318;DHT22;10818;50.830;6.524;2023-06-14T19:49:18;22.00;62.30
21318;DHT22;10818;50.830;6.524;2023-06-14T19:54:18;21.80;63.30
21318;DHT22;10818;50.830;6.524;2023-06-14T19:59:19;21.70;63.60
21318;DHT22;10818;50.830;6.524;2023-06-14T20:04:19;21.60;64.30
21318;DHT22;10818;50.830;6.524;2023-06-14T20:09:20;21.40;65.80
21318;DHT22;10818;50.830;6.524;2023-06-14T20:14:20;21.20;67.30
21318;DHT22;10818;50.830;6.524;2023-06-14T20:19:21;21.00;69.20
21318;DHT22;10818;50.830;6.524;2023-06-14T20:24:21;20.90;67.30
21318;DHT22;10818;50.830;6.524;2023-06-14T20:29:22;20.80;68.60
21318;DHT22;10818;50.830;6.524;2023-06-14T20:34:22;20.70;67.90
21318;DHT22;10818;50.830;6.524;2023-06-14T20:39:23;20.60;68.10
21318;DHT22;10818;50.830;6.524;2023-06-14T20:44:23;20.60;67.30
21318;DHT22;10818;50.830;6.524;2023-06-14T20:49:29;20.40;69.80
21318;DHT22;10818;50.830;6.524;2023-06-14T20:54:30;20.30;69.60
21318;DHT22;10818;50.830;6.524;2023-06-14T20:59:30;20.20;70.60
21318;DHT22;10818;50.830;6.524;2023-06-14T21:04:31;20.10;70.50
21318;DHT22;10818;50.830;6.524;2023-06-14T21:09:32;19.90;73.00
21318;DHT22;10818;50.830;6.524;2023-06-14T21:14:33;19.80;75.20
21318;DHT22;10818;50.830;6.524;2023-06-14T21:19:33;19.60;75.10
21318;DHT22;10818;50.830;6.524;2023-06-14T21:24:34;19.60;76.20
21318;DHT22;10818;50.830;6.524;2023-06-14T21:29:36;19.50;76.20
21318;DHT22;10818;50.830;6.524;2023-06-14T21:34:36;19.30;76.70
21318;DHT22;10818;50.830;6.524;2023-06-14T21:39:40;19.30;78.40
21318;DHT22;10818;50.830;6.524;2023-06-14T21:44:41;19.20;80.20
21318;DHT22;10818;50.830;6.524;2023-06-14T21:49:42;19.20;79.20
21318;DHT22;10818;50.830;6.524;2023-06-14T21:54:43;19.20;80.10
21318;DHT22;10818;50.830;6.524;2023-06-14T21:59:44;19.20;80.50
21318;DHT22;10818;50.830;6.524;2023-06-14T22:04:44;19.10;81.90
21318;DHT22;10818;50.830;6.524;2023-06-14T22:09:45;19.10;81.60
21318;DHT22;10818;50.830;6.524;2023-06-14T22:14:47;19.10;82.20
21318;DHT22;10818;50.830;6.524;2023-06-14T22:19:48;19.00;84.40
21318;DHT22;10818;50.830;6.524;2023-06-14T22:24:53;18.90;85.00
21318;DHT22;10818;50.830;6.524;2023-06-14T22:29:54;18.80;86.90
21318;DHT22;10818;50.830;6.524;2023-06-14T22:34:58;18.80;88.60
21318;DHT22;10818;50.830;6.524;2023-06-14T22:40:05;18.60;90.60
21318;DHT22;10818;50.830;6.524;2023-06-14T22:45:09;18.50;91.70
21318;DHT22;10818;50.830;6.524;2023-06-14T22:50:11;18.30;95.00
21318;DHT22;10818;50.830;6.524;2023-06-14T22:55:12;18.20;94.90
21318;DHT22;10818;50.830;6.524;2023-06-14T23:00:12;18.30;94.30
21318;DHT22;10818;50.830;6.524;2023-06-14T23:05:14;18.20;94.40
21318;DHT22;10818;50.830;6.524;2023-06-14T23:10:17;18.10;95.50
21318;DHT22;10818;50.830;6.524;2023-06-14T23:15:18;18.20;95.30
21318;DHT22;10818;50.830;6.524;2023-06-14T23:20:18;18.10;95.60
21318;DHT22;10818;50.830;6.524;2023-06-14T23:25:19;18.10;95.90
21318;DHT22;10818;50.830;6.524;2023-06-14T23:30:19;18.10;96.40
21318;DHT22;10818;50.830;6.524;2023-06-14T23:35:20;18.10;96.90
21318;DHT22;10818;50.830;6.524;2023-06-14T23:40:21;18.00;97.70
21318;DHT22;10818;50.830;6.524;2023-06-14T23:45:21;17.90;98.20
21318;DHT22;10818;50.830;6.524;2023-06-14T23:50:25;17.80;98.80
21318;DHT22;10818;50.830;6.524;2023-06-14T23:55:26;17.80;99.70
